Boyd Deep Canyon Reserve, California Weather observations

Data are for 10 minute period ending at time listed.
 Day   Time   Solar   Ave.   Ave.  Ave.  Vector  Max.   Baro.   Total    
  of    of     Rad.   Air    Rel.  Wind   Wind   Wind  Press.  Precip.   
Year   Day            Temp.  Hum.  Speed  Dir.   Gust                    
2015   (PST)  Kw/m2    F      %     mph   deg.    mph    mb.     in.     
-------------------------------------------------------------------------
 107   19:00   0.00   79.6    10    8.7   218    15.0   977.7    0.00 
 107   19:10   0.00   79.3    10    7.5   214    12.1   977.8    0.00 
 107   19:20   0.00   79.1    10    5.1   219     8.1   978.0    0.00 
 107   19:30   0.00   78.5    11    6.1   221    12.6   978.3    0.00 
 107   19:40   0.00   75.5    12    5.1    37     6.6   978.6    0.00 
 107   19:50   0.00   75.4    12    3.1   131     5.8   978.7    0.00 
 107   20:00   0.00   75.3    12    2.1   230     5.6   978.8    0.00 
 107   20:10   0.00   76.6    10    6.1   199    10.7   978.9    0.00 
 107   20:20   0.00   76.6    10    7.3   191    11.3   979.0    0.00 
 107   20:30   0.00   76.7    10    9.0   181    14.0   979.2    0.00 
 107   20:40   0.00   76.6    10   11.3   179    16.9   979.3    0.00 
 107   20:50   0.00   76.5    10   10.6   182    17.2   979.4    0.00 
 107   21:00   0.00   76.2    10   10.5   176    16.4   979.4    0.00 
 107   21:10   0.00   76.3    10   11.8   180    18.6   979.5    0.00 
 107   21:20   0.00   76.2    10   10.1   182    15.0   979.5    0.00 
 107   21:30   0.00   75.7    10    9.7   195    13.9   979.5    0.00 
 107   21:40   0.00   75.6    10   10.3   183    19.1   979.6    0.00 
 107   21:50   0.00   75.5    10   10.0   184    14.5   979.6    0.00 
 107   22:00   0.00   75.4    10   12.5   183    18.3   979.7    0.00 
 107   22:10   0.00   75.3    10   14.4   180    19.4   979.7    0.00 
 107   22:20   0.00   75.2    10   10.6   184    17.8   979.8    0.00 
 107   22:30   0.00   74.9    11    9.7   192    16.8   979.8    0.00 
 107   22:40   0.00   74.7    11   10.2   187    15.8   979.8    0.00 
 107   22:50   0.00   74.6    11   10.4   182    15.7   979.8    0.00 
 107   23:00   0.00   74.7    11   11.2   176    17.5   979.9    0.00 
 107   23:10   0.00   74.8    11   11.0   181    18.5   979.9    0.00 
 107   23:20   0.00   74.8    11    9.5   180    14.5   979.9    0.00 
 107   23:30   0.00   74.7    10   12.1   183    18.3   979.9    0.00 
 107   23:40   0.00   74.6    10   12.0   178    18.3   979.9    0.00 
 107   23:50   0.00   74.5     9   11.3   185    17.2   979.9    0.00 
 108    0:00   0.00   74.6     9    9.7   183    16.4   979.9    0.00 
 108    0:10   0.00   74.5     9    9.3   186    14.8   979.8    0.00 
 108    0:20   0.00   74.5     9   10.3   183    19.2   979.7    0.00 
 108    0:30   0.00   74.5     9    9.8   179    14.7   979.6    0.00 
 108    0:40   0.00   74.7     9    8.6   184    15.3   979.5    0.00 
 108    0:50   0.00   73.0    10    2.6   190     7.4   979.5    0.00 
 108    1:00   0.00   72.0    12    5.0   137    12.5   979.5    0.00 
 108    1:10   0.00   73.9    10    5.5   168    11.0   979.3    0.00 
 108    1:20   0.00   70.9    13    3.9   113     7.2   979.2    0.00 
 108    1:30   0.00   70.2    13    3.5    81     6.4   979.1    0.00 
 108    1:40   0.00   69.4    14    2.9    73     4.9   979.0    0.00 
 108    1:50   0.00   68.8    14    0.7    26     1.8   979.0    0.00 
 108    2:00   0.00   68.9    13    2.3   230     7.5   978.9    0.00 
 108    2:10   0.00   70.1    12    4.3   136    11.0   978.9    0.00 
 108    2:20   0.00   71.3    11    5.3   151    11.4   978.8    0.00 
 108    2:30   0.00   73.1     9    8.0   181    11.9   978.7    0.00 
 108    2:40   0.00   73.9     9    6.7   194    11.4   978.6    0.00 
 108    2:50   0.00   72.9     9    6.7   215     9.4   978.5    0.00 
 108    3:00   0.00   72.9     9    4.9   210     9.3   978.5    0.00 
 108    3:10   0.00   72.6     9    4.3   214     9.1   978.4    0.00 
 108    3:20   0.00   70.6    11    3.8   178     9.5   978.4    0.00 
 108    3:30   0.00   68.8    13    4.8    73     6.9   978.4    0.00 
 108    3:40   0.00   69.2    13    2.7    83     4.5   978.5    0.00 
 108    3:50   0.00   68.6    13    1.0    80     2.4   978.5    0.00 
 108    4:00   0.00   66.9    14    1.0   236     2.6   978.4    0.00 
 108    4:10   0.00   66.1    14    1.6   228     3.1   978.3    0.00 
 108    4:20   0.00   65.1    15    1.4   136     2.8   978.3    0.00 
 108    4:30   0.00   65.8    14    1.0   331     2.4   978.3    0.00 
 108    4:40   0.00   64.9    15    1.0    17     3.3   978.3    0.00 
 108    4:50   0.00   65.7    14    1.0     6     3.4   978.3    0.00 
 108    5:00   0.00   65.1    14    0.6   220     2.0   978.4    0.00 
 108    5:10   0.00   64.8    14    1.8   214     3.4   978.4    0.00 
 108    5:20   0.00   65.0    14    1.4   352     3.0   978.5    0.00 
 108    5:30   0.01   65.1    14    1.6   200     2.9   978.6    0.00 
 108    5:40   0.01   64.9    14    3.1   218     4.8   978.6    0.00 
 108    5:50   0.02   65.2    14    3.5   204     4.6   978.7    0.00 
 108    6:00   0.03   65.6    14    2.5   201     3.5   978.7    0.00 
 108    6:10   0.06   65.8    14    1.1   107     2.6   978.8    0.00 
 108    6:20   0.16   67.3    13    2.9   223     4.5   979.0    0.00 
 108    6:30   0.20   71.0    12    0.2   247     1.8   979.1    0.00 
 108    6:40   0.24   74.0    11    0.0   198     0.6   979.2    0.00 
 108    6:50   0.28   74.0    11    0.5   241     1.6   979.3    0.00 
 108    7:00   0.32   75.7    11    0.2   174     1.3   979.3    0.00 
 108    7:10   0.35   76.1    11    0.3   186     2.0   979.3    0.00 
 108    7:20   0.39   77.6    10    0.4    29     2.6   979.3    0.00 
 108    7:30   0.43   76.6    10    2.5    12     4.3   979.3    0.00 
 108    7:40   0.47   76.0    11    2.2    12     4.3   979.3    0.00 
 108    7:50   0.51   76.9    10    1.9    30     3.1   979.2    0.00 
 108    8:00   0.54   78.1    10    1.0    64     2.9   979.1    0.00 
 108    8:10   0.58   78.6    10    1.3    11     3.9   979.0    0.00 
 108    8:20   0.61   79.0    10    1.2   346     2.9   979.0    0.00 
 108    8:30   0.65   79.2    10    1.7   325     3.6   978.9    0.00 
 108    8:40   0.68   80.0     9    1.5   302     3.6   978.9    0.00 
 108    8:50   0.71   79.8    10    1.9   358     5.5   978.7    0.00 
 108    9:00   0.74   80.5     9    2.2    27     5.8   978.6    0.00 
 108    9:10   0.77   81.4     9    3.3     7     6.2   978.5    0.00 
 108    9:20   0.80   81.3     9    3.5   357     8.3   978.5    0.00 
 108    9:30   0.83   81.6     9    3.3    50     8.8   978.6    0.00 
 108    9:40   0.85   82.4     9    5.0    44     8.7   978.6    0.00 
 108    9:50   0.88   81.7    10    5.5    68    10.2   978.6    0.00 
 108   10:00   0.90   82.5     9    4.9    63    10.2   978.6    0.00 
 108   10:10   0.92   81.9    10    3.4    88     7.7   978.6    0.00 
 108   10:20   0.93   83.2     9    3.4    88     8.3   978.5    0.00 
 108   10:30   0.95   83.6     9    4.7    73     8.0   978.4    0.00 
 108   10:40   0.96   83.3     9    2.9    79     7.4   978.4    0.00 
 108   10:50   0.97   84.6     9    4.9    72     9.1   978.3    0.00 
 108   11:00   0.98   84.4    10    5.1    68     9.5   978.1    0.00 
 108   11:10   0.99   84.1    10    5.2    75    11.5   978.0    0.00 
 108   11:20   1.00   85.3    10    4.8    74     9.3   977.9    0.00 
 108   11:30   1.00   85.0    10    3.7    97     9.6   977.8    0.00 
 108   11:40   1.00   85.1    10    5.0    77    10.9   977.6    0.00 
 108   11:50   1.00   84.8    10    4.7    78     9.9   977.5    0.00 
 108   12:00   1.01   85.6    10    4.6    82    10.2   977.4    0.00 
 108   12:10   1.00   86.0     9    4.4    74     9.9   977.2    0.00 
 108   12:20   0.97   86.4     9    5.1    77     9.7   977.1    0.00 
 108   12:30   0.99   87.2     8    5.2    62    10.1   977.0    0.00 
 108   12:40   0.98   87.0     9    4.7    66    10.9   976.9    0.00 
 108   12:50   0.98   87.5     9    4.7    67     9.8   976.8    0.00 
 108   13:00   0.96   88.0     9    2.6    88     8.6   976.7    0.00 
 108   13:10   0.95   88.5     8    4.1    36    10.4   976.6    0.00 
 108   13:20   0.93   89.1     8    5.6    11    13.2   976.5    0.00 
 108   13:30   0.91   88.7     9    6.0    41    11.1   976.4    0.00 
 108   13:40   0.90   88.6     8    4.6    64    10.5   976.3    0.00 
 108   13:50   0.88   89.3     8    4.6    59    10.2   976.1    0.00 
 108   14:00   0.86   88.5     8    6.2    68    10.8   976.0    0.00 
 108   14:10   0.83   89.1     8    2.8    80     7.6   975.8    0.00 
 108   14:20   0.81   89.5     7    3.2    69     9.6   975.7    0.00 
 108   14:30   0.78   89.9     8    6.9    33    12.8   975.5    0.00 
 108   14:40   0.74   89.2     8    4.7    29    11.3   975.4    0.00 
 108   14:50   0.71   89.2     8    3.5    22     6.3   975.2    0.00 
 108   15:00   0.68   89.6     8    5.5   343    11.1   975.1    0.00 
 108   15:10   0.65   89.7     8    7.4   344    13.5   975.0    0.00 
 108   15:20   0.62   89.4     8    5.6   339    11.7   974.9    0.00 
 108   15:30   0.58   89.9     8    4.3     3     9.9   974.8    0.00 
 108   15:40   0.55   90.1     8    5.8     9    11.4   974.7    0.00 
 108   15:50   0.51   89.7     8    5.9   348    10.2   974.7    0.00 
 108   16:00   0.47   89.6     8    5.0    43    10.8   974.5    0.00 
 108   16:10   0.44   88.4     8    6.6    65    12.7   974.5    0.00 
 108   16:20   0.40   88.6     8    5.8    74    11.1   974.4    0.00 
 108   16:30   0.36   88.1     8    6.3    71    11.2   974.3    0.00 
 108   16:40   0.32   88.3     8    7.2    62    10.6   974.2    0.00 
 108   16:50   0.28   87.9     8    5.5    55     9.9   974.2    0.00 
 108   17:00   0.24   87.8     8    5.8    55     9.7   974.0    0.00 
 108   17:10   0.20   87.6     8    5.4    71     9.6   973.9    0.00 
 108   17:20   0.06   87.1     8    5.0    60     8.6   973.8    0.00 
 108   17:30   0.03   86.6     8    5.2    74     8.3   973.8    0.00 
 108   17:40   0.03   86.1     8    6.2    79     9.5   973.7    0.00 
 108   17:50   0.03   85.6     8    6.1    73     9.6   973.8    0.00 
 108   18:00   0.01   85.5     9    4.9    75    15.7   973.9    0.00 
 108   18:10   0.01   84.2    13   13.5   168    20.3   974.0    0.00 
 108   18:20   0.00   83.4    14   14.3   185    24.3   974.0    0.00 
 108   18:30   0.00   83.0    14   10.2   191    17.6   974.2    0.00 
 108   18:40   0.00   82.3    14   11.1   181    18.3   974.3    0.00 
 108   18:50   0.00   81.6    14   14.2   173    21.3   974.4    0.00 

Return to Boyd Deep Canyon Reserve graphs page.


Western Regional Climate Center,wrcc@dri.edu